Time;durP1;ratioP1;P1;durP2;ratioP2;P2;SDS_P1;SDS_P2;PMS_P1;PMS_P2;Temp;Humidity;BMP_temperature;BMP_pressure;BME280_temperature;BME280_humidity;BME280_pressure;Samples;Min_cycle;Max_cycle;Signal;HPM_P1;HPM_P2
2024/04/10 00:01:56;;;;;;;15.88;4.25;;;;;;;11.19;96.28;101872.34;5496634;26;19997;-67
2024/04/10 00:04:48;;;;;;;13.50;3.78;;;;;;;11.20;95.96;101877.53;5459672;26;20095;-67
2024/04/10 00:07:37;;;;;;;13.13;3.95;;;;;;;11.18;96.61;101876.13;5493181;26;20314;-67
2024/04/10 00:10:25;;;;;;;15.57;4.15;;;;;;;11.15;96.33;101885.66;5496037;26;19998;-66
2024/04/10 00:13:13;;;;;;;13.98;4.05;;;;;;;11.09;97.00;101890.19;5442588;26;20338;-66
2024/04/10 00:16:03;;;;;;;15.13;4.70;;;;;;;11.08;96.82;101890.44;5483521;26;20006;-67
2024/04/10 00:18:51;;;;;;;13.73;4.25;;;;;;;11.11;96.91;101891.84;5424745;26;20022;-65
2024/04/10 00:21:40;;;;;;;15.50;4.50;;;;;;;11.06;97.42;101893.41;5444685;26;20013;-67
2024/04/10 00:24:28;;;;;;;12.68;3.72;;;;;;;11.04;97.63;101903.75;5514116;26;20065;-66
2024/04/10 00:27:17;;;;;;;14.00;4.22;;;;;;;11.02;97.59;101908.59;5493726;26;19994;-67
2024/04/10 00:30:06;;;;;;;12.45;3.70;;;;;;;11.01;98.28;101908.84;5438516;26;20051;-66
2024/04/10 00:32:54;;;;;;;13.70;4.03;;;;;;;11.01;97.84;101909.66;5427822;26;20101;-66
2024/04/10 00:35:42;;;;;;;18.75;4.43;;;;;;;10.98;98.36;101918.34;5464513;26;19998;-66
2024/04/10 00:38:32;;;;;;;15.23;4.15;;;;;;;10.98;97.75;101912.88;5461166;26;20034;-66
2024/04/10 00:41:20;;;;;;;13.75;3.85;;;;;;;10.93;98.45;101928.34;5461778;26;20016;-65
2024/04/10 00:44:08;;;;;;;14.82;4.03;;;;;;;10.95;98.38;101931.66;5422389;26;20411;-66
2024/04/10 00:46:57;;;;;;;12.52;3.85;;;;;;;10.89;98.90;101927.97;5424053;26;20032;-67
2024/04/10 00:49:45;;;;;;;11.05;3.70;;;;;;;10.89;99.31;101933.44;5401035;26;20058;-66
2024/04/10 00:52:34;;;;;;;12.95;3.85;;;;;;;10.87;99.02;101941.88;5461214;26;19994;-66
2024/04/10 00:55:22;;;;;;;16.13;3.85;;;;;;;10.87;99.15;101941.00;5461146;26;20010;-66
2024/04/10 00:58:12;;;;;;;15.07;4.25;;;;;;;10.84;99.81;101946.97;5435622;26;20033;-66
2024/04/10 01:01:04;;;;;;;14.20;4.40;;;;;;;10.84;100.00;101952.41;5459135;26;20355;-66
2024/04/10 01:03:52;;;;;;;12.95;4.13;;;;;;;10.86;100.00;101955.72;5426753;26;20007;-66
2024/04/10 01:06:40;;;;;;;16.60;4.35;;;;;;;10.84;99.94;101953.25;5474717;26;20001;-66
2024/04/10 01:09:28;;;;;;;15.00;4.25;;;;;;;10.83;100.00;101956.22;5497671;26;19997;-65
2024/04/10 01:12:16;;;;;;;13.23;4.32;;;;;;;10.84;100.00;101963.31;5504471;26;20446;-68
2024/04/10 01:15:05;;;;;;;15.40;4.43;;;;;;;10.86;100.00;101963.91;5475302;26;19998;-67
2024/04/10 01:17:53;;;;;;;14.95;4.20;;;;;;;10.89;100.00;101971.59;5485523;26;20066;-66
2024/04/10 01:20:41;;;;;;;12.70;4.22;;;;;;;10.91;100.00;101974.91;5461512;26;20009;-65
2024/04/10 01:23:29;;;;;;;14.93;4.10;;;;;;;10.88;100.00;101976.22;5485898;26;20021;-66
2024/04/10 01:26:17;;;;;;;15.73;4.28;;;;;;;10.91;100.00;101977.66;5486479;26;19998;-65
2024/04/10 01:29:06;;;;;;;15.40;3.63;;;;;;;10.90;100.00;101977.91;5485579;26;20002;-66
2024/04/10 01:31:54;;;;;;;12.75;3.58;;;;;;;10.86;100.00;101986.53;5460326;26;20074;-66
2024/04/10 01:34:43;;;;;;;14.02;4.53;;;;;;;10.84;100.00;101988.69;5493421;26;19994;-65
2024/04/10 01:37:31;;;;;;;12.35;3.55;;;;;;;10.86;100.00;101988.44;5548484;25;19997;-66
2024/04/10 01:40:21;;;;;;;10.85;3.55;;;;;;;10.87;100.00;101992.81;5530083;25;20008;-65
2024/04/10 01:43:09;;;;;;;12.60;3.33;;;;;;;10.84;100.00;101990.59;5528921;25;20001;-66
2024/04/10 01:45:57;;;;;;;12.65;3.80;;;;;;;10.87;100.00;102007.31;5517091;25;20002;-67
2024/04/10 01:48:45;;;;;;;11.75;3.63;;;;;;;10.86;100.00;102010.25;5413249;26;20442;-65
2024/04/10 01:51:34;;;;;;;13.35;3.75;;;;;;;10.85;100.00;102020.34;5452064;26;20018;-65
2024/04/10 01:54:22;;;;;;;12.85;4.05;;;;;;;10.85;100.00;102027.72;5509791;25;20032;-66
2024/04/10 01:57:10;;;;;;;11.10;3.30;;;;;;;10.81;100.00;102031.97;5505392;26;20004;-66
2024/04/10 01:59:58;;;;;;;13.82;4.05;;;;;;;10.78;100.00;102040.63;5522128;26;20001;-66
2024/04/10 02:02:47;;;;;;;12.05;4.07;;;;;;;10.77;100.00;102039.78;5467607;25;20520;-66
2024/04/10 02:05:35;;;;;;;10.40;3.45;;;;;;;10.71;100.00;102045.38;5520037;26;20009;-66
2024/04/10 02:08:23;;;;;;;9.55;3.00;;;;;;;10.69;100.00;102044.78;5529435;25;19996;-66
2024/04/10 02:11:28;;;;;;;13.52;3.42;;;;;;;10.67;100.00;102045.03;5487426;25;20077;-66
2024/04/10 02:14:17;;;;;;;11.85;3.80;;;;;;;10.72;100.00;102041.59;5534610;25;20072;-65
2024/04/10 02:17:05;;;;;;;9.30;2.88;;;;;;;10.70;100.00;102054.63;5514255;26;20444;-65
2024/04/10 02:19:54;;;;;;;10.90;3.42;;;;;;;10.73;100.00;102056.88;5493343;26;20293;-66
2024/04/10 02:22:42;;;;;;;13.93;3.95;;;;;;;10.70;100.00;102057.34;5494228;26;20001;-65
2024/04/10 02:25:33;;;;;;;14.60;3.80;;;;;;;10.66;100.00;102066.00;5490083;26;20033;-66
2024/04/10 02:28:21;;;;;;;12.10;3.50;;;;;;;10.69;100.00;102063.88;5504081;26;19997;-66
2024/04/10 02:31:09;;;;;;;10.35;3.55;;;;;;;10.66;100.00;102060.56;5495530;26;20014;-66
2024/04/10 02:33:58;;;;;;;8.63;3.40;;;;;;;10.64;100.00;102076.31;5471902;26;20015;-66
2024/04/10 02:36:46;;;;;;;10.68;3.17;;;;;;;10.62;100.00;102085.78;5472482;26;19998;-66
2024/04/10 02:39:34;;;;;;;8.50;3.10;;;;;;;10.59;100.00;102089.00;5503738;26;20001;-61
2024/04/10 02:42:23;;;;;;;11.20;3.38;;;;;;;10.60;100.00;102088.75;5450009;26;20456;-63
2024/04/10 02:45:11;;;;;;;10.32;3.40;;;;;;;10.60;100.00;102098.81;5497879;26;19998;-65
2024/04/10 02:48:00;;;;;;;10.48;3.22;;;;;;;10.57;100.00;102100.13;5522241;26;20008;-65
2024/04/10 02:50:48;;;;;;;10.10;3.05;;;;;;;10.60;100.00;102113.28;5503471;25;20013;-66
2024/04/10 02:53:36;;;;;;;11.50;3.45;;;;;;;10.60;100.00;102116.00;5462396;26;20003;-64
2024/04/10 02:56:25;;;;;;;11.05;3.65;;;;;;;10.63;100.00;102125.59;5464721;26;20002;-66
2024/04/10 02:59:14;;;;;;;11.07;3.55;;;;;;;10.64;100.00;102128.09;5462612;26;20009;-66
2024/04/10 03:02:02;;;;;;;8.52;3.03;;;;;;;10.62;100.00;102130.22;5465345;26;20042;-66
2024/04/10 03:04:51;;;;;;;8.75;3.38;;;;;;;10.61;100.00;102139.47;5477844;26;20005;-68
2024/04/10 03:07:39;;;;;;;12.85;3.40;;;;;;;10.61;100.00;102144.94;5515326;26;19998;-66
2024/04/10 03:10:28;;;;;;;12.07;3.80;;;;;;;10.61;100.00;102139.47;5550936;25;20064;-65
2024/04/10 03:13:16;;;;;;;11.00;3.50;;;;;;;10.59;100.00;102147.06;5511768;25;20405;-66
2024/04/10 03:16:06;;;;;;;10.68;3.40;;;;;;;10.59;100.00;102147.06;5531968;25;19997;-66
2024/04/10 03:18:55;;;;;;;10.52;3.38;;;;;;;10.61;100.00;102160.47;5487911;26;20013;-65
2024/04/10 03:21:43;;;;;;;8.95;3.00;;;;;;;10.61;100.00;102164.00;5464160;26;19994;-65
2024/04/10 03:24:31;;;;;;;10.88;3.70;;;;;;;10.60;100.00;102170.50;5490778;26;19999;-66
2024/04/10 03:27:19;;;;;;;9.95;3.30;;;;;;;10.60;100.00;102181.41;5462312;26;20035;-66
2024/04/10 03:30:07;;;;;;;9.32;3.00;;;;;;;10.60;100.00;102175.97;5526293;25;20160;-66
2024/04/10 03:32:56;;;;;;;9.93;3.40;;;;;;;10.58;100.00;102178.13;5524231;26;20017;-66
2024/04/10 03:35:45;;;;;;;10.30;3.15;;;;;;;10.55;100.00;102175.84;5497362;26;20014;-65
2024/04/10 03:38:33;;;;;;;11.18;3.42;;;;;;;10.55;100.00;102180.47;5524892;26;20001;-65
2024/04/10 03:41:21;;;;;;;8.77;3.38;;;;;;;10.55;100.00;102184.00;5497898;25;20073;-66
2024/04/10 03:44:10;;;;;;;10.63;3.40;;;;;;;10.54;100.00;102198.72;5462733;26;19998;-66
2024/04/10 03:47:00;;;;;;;9.15;3.53;;;;;;;10.53;100.00;102199.75;5460723;26;20009;-65
2024/04/10 03:49:48;;;;;;;11.25;3.08;;;;;;;10.48;100.00;102202.38;5438711;26;20341;-67
2024/04/10 03:52:37;;;;;;;10.73;3.30;;;;;;;10.50;100.00;102205.69;5460959;26;20478;-66
2024/04/10 03:55:26;;;;;;;11.13;3.40;;;;;;;10.50;100.00;102213.88;5487943;26;20014;-65
2024/04/10 03:58:15;;;;;;;10.13;3.67;;;;;;;10.49;100.00;102212.22;5488023;26;20009;-65
2024/04/10 04:01:05;;;;;;;12.73;3.72;;;;;;;10.49;100.00;102220.41;5511300;26;20002;-66
2024/04/10 04:03:53;;;;;;;12.80;3.83;;;;;;;10.50;100.00;102230.22;5488381;26;20013;-65
2024/04/10 04:06:44;;;;;;;9.27;3.33;;;;;;;10.49;100.00;102233.19;5527079;25;19993;-65
2024/04/10 04:09:32;;;;;;;12.10;3.97;;;;;;;10.49;100.00;102236.75;5509905;25;20347;-66
2024/04/10 04:12:20;;;;;;;10.38;3.60;;;;;;;10.49;100.00;102234.03;5532726;25;20011;-66
2024/04/10 04:15:11;;;;;;;13.07;3.75;;;;;;;10.51;100.00;102236.50;5532811;25;20000;-67
2024/04/10 04:17:59;;;;;;;12.48;3.72;;;;;;;10.51;100.00;102250.13;5553597;25;20011;-66
2024/04/10 04:20:49;;;;;;;13.55;3.78;;;;;;;10.51;100.00;102252.84;5535414;25;20012;-67
2024/04/10 04:23:37;;;;;;;10.63;3.45;;;;;;;10.53;100.00;102257.00;5560255;25;20016;-67
2024/04/10 04:26:25;;;;;;;14.18;4.10;;;;;;;10.53;100.00;102262.44;5533580;25;19997;-67
2024/04/10 04:29:13;;;;;;;10.63;3.95;;;;;;;10.51;100.00;102264.59;5533485;25;20034;-66
2024/04/10 04:32:04;;;;;;;11.85;3.42;;;;;;;10.48;100.00;102273.22;5478824;26;20329;-65
2024/04/10 04:34:52;;;;;;;10.98;3.70;;;;;;;10.46;100.00;102272.59;5498131;26;20005;-66
2024/04/10 04:37:45;;;;;;;12.57;3.83;;;;;;;10.50;100.00;102278.44;5490507;26;20012;-66
2024/04/10 04:40:33;;;;;;;11.23;3.20;;;;;;;10.47;100.00;102277.00;5485801;26;20009;-66
2024/04/10 04:43:23;;;;;;;11.35;3.40;;;;;;;10.41;100.00;102289.69;5494424;26;20394;-66
2024/04/10 04:46:17;;;;;;;10.88;3.25;;;;;;;10.42;100.00;102295.97;5544535;25;20516;-66
2024/04/10 04:49:05;;;;;;;10.57;3.33;;;;;;;10.42;100.00;102302.22;5533652;25;20437;-67
2024/04/10 04:51:53;;;;;;;9.57;3.50;;;;;;;10.43;100.00;102305.78;5534670;25;19996;-66
2024/04/10 04:54:42;;;;;;;11.02;3.45;;;;;;;10.41;100.00;102319.66;5559713;25;20001;-67
2024/04/10 04:57:30;;;;;;;13.38;3.97;;;;;;;10.41;100.00;102322.38;5557047;25;19997;-65
2024/04/10 05:00:20;;;;;;;9.15;3.40;;;;;;;10.44;100.00;102323.81;5484568;25;20024;-66
2024/04/10 05:04:54;;;;;;;9.65;3.38;;;;;;;10.44;100.00;102334.72;5545689;25;20015;-65
2024/04/10 05:06:19;;;;;;;11.70;3.67;;;;;;;10.47;100.00;102328.78;5559964;25;20114;-65
2024/04/10 05:09:09;;;;;;;11.43;4.28;;;;;;;10.47;100.00;102333.41;5524546;25;20064;-66
2024/04/10 05:11:59;;;;;;;12.00;3.33;;;;;;;10.45;100.00;102325.47;5522720;25;20008;-66
2024/04/10 05:14:55;;;;;;;12.70;3.63;;;;;;;10.43;100.00;102341.19;5524706;26;20007;-66
2024/04/10 05:17:48;;;;;;;10.38;3.45;;;;;;;10.43;100.00;102341.19;5475836;26;19997;-66
2024/04/10 05:20:37;;;;;;;12.45;3.75;;;;;;;10.44;100.00;102359.22;5518677;26;20070;-66
2024/04/10 05:23:26;;;;;;;10.73;3.30;;;;;;;10.43;100.00;102360.28;5520871;25;20000;-65
2024/04/10 05:26:14;;;;;;;16.05;3.78;;;;;;;10.44;100.00;102367.41;5534743;25;20008;-66
2024/04/10 05:29:02;;;;;;;10.25;3.05;;;;;;;10.45;100.00;102372.59;5562320;25;20011;-65
2024/04/10 05:31:50;;;;;;;10.32;3.97;;;;;;;10.45;100.00;102377.22;5545994;25;20012;-66
2024/04/10 05:34:38;;;;;;;10.45;3.20;;;;;;;10.45;100.00;102386.22;5492061;26;20004;-65
2024/04/10 05:37:32;;;;;;;10.73;3.08;;;;;;;10.44;100.00;102389.22;5509253;25;20001;-66
2024/04/10 05:40:20;;;;;;;10.35;3.25;;;;;;;10.45;100.00;102397.13;5525610;26;20398;-66
2024/04/10 05:43:08;;;;;;;10.77;3.70;;;;;;;10.47;100.00;102405.09;5472284;26;20069;-69
2024/04/10 05:45:57;;;;;;;11.65;3.60;;;;;;;10.49;100.00;102408.44;5512430;25;20387;-68
2024/04/10 05:48:45;;;;;;;10.70;3.90;;;;;;;10.48;100.00;102423.09;5560431;25;20002;-68
2024/04/10 05:51:33;;;;;;;9.98;3.40;;;;;;;10.48;100.00;102428.53;5508864;25;20122;-68
2024/04/10 05:54:23;;;;;;;9.38;3.20;;;;;;;10.48;100.00;102434.00;5533749;25;20072;-70
2024/04/10 05:57:12;;;;;;;8.90;3.13;;;;;;;10.48;100.00;102438.63;5533281;25;20069;-69
2024/04/10 06:00:00;;;;;;;13.88;3.25;;;;;;;10.43;100.00;102439.31;5450012;26;19997;-69
2024/04/10 06:03:06;;;;;;;14.05;3.85;;;;;;;10.37;100.00;102442.94;5475527;26;20011;-70
2024/04/10 06:06:15;;;;;;;13.05;4.00;;;;;;;10.39;100.00;102447.13;5506850;26;20002;-68
2024/04/10 06:09:04;;;;;;;10.35;3.67;;;;;;;10.38;100.00;102460.94;5474240;26;20350;-69
2024/04/10 06:11:53;;;;;;;12.85;3.70;;;;;;;10.38;100.00;102463.66;5085596;26;10000620;-69
2024/04/10 06:14:55;;;;;;;15.80;5.22;;;;;;;10.30;100.00;102466.72;5497575;26;20414;-68
2024/04/10 06:17:43;;;;;;;14.18;4.78;;;;;;;10.22;100.00;102468.63;5521347;26;20470;-68
2024/04/10 06:20:32;;;;;;;12.57;4.30;;;;;;;10.22;100.00;102486.84;5479741;26;20012;-70
2024/04/10 06:23:20;;;;;;;15.20;4.60;;;;;;;10.23;100.00;102493.97;5483880;26;20424;-69
2024/04/10 06:26:09;;;;;;;13.35;4.75;;;;;;;10.28;100.00;102496.03;5456773;26;20002;-68
2024/04/10 06:28:58;;;;;;;14.25;4.68;;;;;;;10.34;100.00;102503.31;5433955;26;20012;-69
2024/04/10 06:31:46;;;;;;;14.07;4.65;;;;;;;10.38;100.00;102510.81;5514742;25;20044;-70
2024/04/10 06:34:34;;;;;;;18.20;5.00;;;;;;;10.42;100.00;102505.78;5532740;25;20007;-70
2024/04/10 06:37:22;;;;;;;14.82;4.20;;;;;;;10.42;100.00;102503.03;5499636;26;20002;-69
2024/04/10 06:40:10;;;;;;;10.40;3.95;;;;;;;10.45;100.00;102508.88;5490759;26;20026;-68
2024/04/10 06:42:58;;;;;;;14.32;4.20;;;;;;;10.56;100.00;102511.88;5484879;26;20509;-69
2024/04/10 06:46:04;;;;;;;13.30;3.83;;;;;;;10.47;100.00;102518.72;5485276;26;20012;-69
2024/04/10 06:48:53;;;;;;;10.63;3.53;;;;;;;10.51;100.00;102519.91;5512191;26;20018;-73
2024/04/10 06:51:42;;;;;;;12.35;4.00;;;;;;;10.58;100.00;102517.94;5577291;25;20008;-73
2024/04/10 06:54:30;;;;;;;11.50;4.07;;;;;;;10.61;100.00;102520.25;5542485;25;20001;-73
2024/04/10 06:57:18;;;;;;;15.88;4.10;;;;;;;10.56;100.00;102533.69;5547713;25;20001;-70
2024/04/10 07:00:12;;;;;;;11.65;3.80;;;;;;;10.56;100.00;102529.09;5571385;25;20011;-71
2024/04/10 07:03:02;;;;;;;16.52;4.60;;;;;;;10.58;100.00;102540.63;5470764;26;20004;-73
2024/04/10 07:05:51;;;;;;;12.43;4.25;;;;;;;10.54;100.00;102549.47;5438355;26;20005;-72
2024/04/10 07:08:45;;;;;;;12.10;4.20;;;;;;;10.58;100.00;102554.25;5437074;26;20001;-71
2024/04/10 07:11:34;;;;;;;17.73;4.88;;;;;;;10.58;100.00;102559.69;5423034;26;20071;-67
2024/04/10 07:14:22;;;;;;;12.27;3.72;;;;;;;10.59;100.00;102569.53;5452624;25;20467;-68
2024/04/10 07:17:10;;;;;;;10.77;3.45;;;;;;;10.62;100.00;102560.91;5465579;26;20082;-68
2024/04/10 07:19:59;;;;;;;15.85;4.22;;;;;;;10.63;100.00;102564.44;5445341;26;19998;-70
2024/04/10 07:22:48;;;;;;;11.77;4.13;;;;;;;10.66;100.00;102561.28;5496992;26;20426;-68
2024/04/10 07:25:37;;;;;;;15.13;4.25;;;;;;;10.68;100.00;102561.91;5532196;25;20068;-68
2024/04/10 07:28:25;;;;;;;12.35;3.63;;;;;;;10.66;100.00;102564.84;5562418;25;20004;-68
2024/04/10 07:31:17;;;;;;;14.60;3.88;;;;;;;10.64;100.00;102566.13;5536173;25;20019;-68
2024/04/10 07:34:06;;;;;;;10.85;3.40;;;;;;;10.66;100.00;102573.03;5537523;25;20440;-68
2024/04/10 07:36:54;;;;;;;14.65;3.83;;;;;;;10.63;100.00;102573.47;5487646;26;20370;-69
2024/04/10 07:39:45;;;;;;;11.82;3.20;;;;;;;10.65;100.00;102575.97;5437665;26;20048;-68
2024/04/10 07:42:34;;;;;;;17.23;4.15;;;;;;;10.64;100.00;102583.31;5487166;26;20078;-68
2024/04/10 07:45:28;;;;;;;13.38;3.75;;;;;;;10.69;100.00;102565.47;5439469;26;20009;-68
2024/04/10 07:48:17;;;;;;;11.63;3.60;;;;;;;10.69;100.00;102579.09;5462861;26;20025;-68
2024/04/10 07:51:07;;;;;;;14.63;4.13;;;;;;;10.70;100.00;102578.00;5461615;26;19993;-68
2024/04/10 07:53:55;;;;;;;18.42;4.10;;;;;;;10.75;100.00;102579.03;5449717;26;20461;-69
2024/04/10 07:56:45;;;;;;;15.00;3.28;;;;;;;10.82;100.00;102581.66;5514816;26;20457;-68
2024/04/10 07:59:33;;;;;;;14.40;4.30;;;;;;;10.92;100.00;102590.16;5524390;26;20021;-66
2024/04/10 08:02:23;;;;;;;17.58;3.88;;;;;;;11.00;100.00;102589.84;5498439;25;19998;-68
2024/04/10 08:05:11;;;;;;;15.02;3.97;;;;;;;11.04;100.00;102603.84;5478248;26;20031;-68
2024/04/10 08:08:00;;;;;;;16.38;3.83;;;;;;;11.07;100.00;102601.53;5449843;26;20125;-68
2024/04/10 08:11:04;;;;;;;15.60;4.13;;;;;;;11.11;100.00;102601.06;5473214;26;20050;-67
2024/04/10 08:13:52;;;;;;;16.05;4.50;;;;;;;11.14;100.00;102617.00;5424159;26;20017;-68
2024/04/10 08:16:40;;;;;;;17.90;4.30;;;;;;;11.09;100.00;102613.03;5429055;26;19994;-68
2024/04/10 08:19:29;;;;;;;13.45;3.78;;;;;;;11.13;100.00;102615.31;5465808;26;20001;-67
2024/04/10 08:22:17;;;;;;;16.85;4.55;;;;;;;11.08;100.00;102624.16;5497665;26;20005;-68
2024/04/10 08:25:05;;;;;;;18.33;4.78;;;;;;;11.01;100.00;102624.25;5473927;26;20014;-68
2024/04/10 08:27:53;;;;;;;19.65;5.00;;;;;;;11.00;100.00;102628.03;5495265;26;20006;-68
2024/04/10 08:30:42;;;;;;;17.27;4.32;;;;;;;11.09;100.00;102637.59;5511534;26;20007;-68
2024/04/10 08:33:30;;;;;;;14.77;4.35;;;;;;;11.03;100.00;102630.31;5501999;26;20013;-69
2024/04/10 08:36:20;;;;;;;17.25;4.25;;;;;;;10.97;100.00;102638.59;5502187;26;20033;-68
2024/04/10 08:39:10;;;;;;;16.75;4.63;;;;;;;10.99;100.00;102642.75;5500609;26;20013;-68
2024/04/10 08:41:59;;;;;;;18.55;4.85;;;;;;;10.96;100.00;102642.34;5507782;25;20014;-69
2024/04/10 08:44:49;;;;;;;15.45;4.35;;;;;;;10.93;100.00;102653.72;5533220;25;20009;-69
2024/04/10 08:47:38;;;;;;;12.00;3.78;;;;;;;10.87;100.00;102644.53;5499757;26;20002;-68
2024/04/10 08:50:27;;;;;;;14.80;4.00;;;;;;;10.91;100.00;102645.75;5499964;26;20372;-70
2024/04/10 08:53:17;;;;;;;15.48;4.07;;;;;;;10.96;100.00;102653.25;5524875;26;20017;-70
2024/04/10 08:56:06;;;;;;;13.77;3.53;;;;;;;11.00;96.83;102658.03;5534815;25;20006;-69
2024/04/10 08:58:57;;;;;;;17.20;3.90;;;;;;;11.02;95.19;102664.09;5473912;26;20017;-68
2024/04/10 09:01:46;;;;;;;19.65;4.40;;;;;;;11.01;94.92;102673.34;5469901;26;20001;-69
2024/04/10 09:04:43;;;;;;;13.80;3.42;;;;;;;11.02;92.81;102669.56;5431130;26;20002;-69
2024/04/10 09:07:32;;;;;;;10.20;3.50;;;;;;;11.22;99.33;102673.97;5475952;26;20012;-71
2024/04/10 09:10:20;;;;;;;13.38;4.32;;;;;;;11.51;96.74;102675.94;5508897;26;20006;-69
2024/04/10 09:13:10;;;;;;;14.02;3.70;;;;;;;11.55;87.92;102678.22;5481876;26;20013;-68
2024/04/10 09:15:59;;;;;;;13.80;3.22;;;;;;;11.52;87.91;102677.63;5461107;26;20005;-67
2024/04/10 09:18:48;;;;;;;15.95;3.92;;;;;;;11.50;89.01;102682.47;5499265;26;20001;-69
2024/04/10 09:21:37;;;;;;;14.95;3.88;;;;;;;11.53;89.65;102686.63;5554159;25;20011;-68
2024/04/10 09:24:26;;;;;;;13.60;3.85;;;;;;;11.51;89.58;102689.56;5480774;26;20521;-67
2024/04/10 09:27:15;;;;;;;12.38;3.15;;;;;;;11.43;90.12;102695.34;5477196;26;20005;-69
2024/04/10 09:30:05;;;;;;;11.90;3.25;;;;;;;11.34;82.97;102698.63;5474529;26;20016;-68
2024/04/10 09:32:54;;;;;;;11.38;3.30;;;;;;;11.30;82.88;102703.69;5477609;25;20032;-67
2024/04/10 09:35:42;;;;;;;9.88;2.90;;;;;;;11.29;84.27;102705.59;5532979;25;20001;-68
2024/04/10 09:38:36;;;;;;;11.80;3.35;;;;;;;11.29;84.35;102707.47;5535576;25;20045;-68
2024/04/10 09:41:27;;;;;;;13.02;3.47;;;;;;;11.31;82.90;102710.81;5460646;26;20462;-68
2024/04/10 09:44:21;;;;;;;11.43;3.20;;;;;;;11.26;79.18;102705.22;5473887;26;20001;-68
2024/04/10 09:47:10;;;;;;;11.48;3.30;;;;;;;11.22;79.18;102706.72;5481446;25;19996;-69
2024/04/10 09:50:00;;;;;;;9.55;2.38;;;;;;;11.20;79.61;102712.38;5485600;25;20413;-69
2024/04/10 09:52:48;;;;;;;11.38;2.88;;;;;;;11.22;79.99;102713.00;5488337;25;20143;-68
2024/04/10 09:55:38;;;;;;;11.13;3.30;;;;;;;11.26;80.43;102707.94;5534863;25;20008;-69
2024/04/10 09:58:27;;;;;;;14.13;3.30;;;;;;;11.33;78.58;102716.03;5434918;26;20002;-68
2024/04/10 10:01:23;;;;;;;12.70;3.45;;;;;;;11.38;75.03;102708.84;5450058;26;20021;-69
2024/04/10 10:04:11;;;;;;;8.52;2.55;;;;;;;11.47;76.05;102709.38;5447361;26;19998;-69
2024/04/10 10:07:02;;;;;;;10.65;3.00;;;;;;;11.60;74.14;102717.41;5425187;26;20506;-68
2024/04/10 10:09:51;;;;;;;11.38;3.00;;;;;;;11.66;73.62;102708.28;5471925;26;20005;-68
2024/04/10 10:12:40;;;;;;;12.75;2.95;;;;;;;11.69;72.54;102707.03;5453027;26;20023;-68
2024/04/10 10:15:28;;;;;;;9.40;2.88;;;;;;;11.70;73.45;102705.97;5486177;26;19995;-68
2024/04/10 10:18:23;;;;;;;10.93;2.72;;;;;;;11.78;74.68;102700.16;5486283;26;20014;-67
2024/04/10 10:21:22;;;;;;;9.43;2.70;;;;;;;11.81;72.26;102705.19;5522449;25;20006;-67
2024/04/10 10:24:14;;;;;;;15.98;3.15;;;;;;;11.89;72.73;102710.34;5480468;26;20461;-70
2024/04/10 10:27:03;;;;;;;11.68;2.97;;;;;;;11.97;72.61;102724.75;5495726;26;20001;-69
2024/04/10 10:30:03;;;;;;;10.02;3.15;;;;;;;12.02;73.16;102722.16;5448938;26;20047;-68
2024/04/10 10:33:04;;;;;;;9.88;2.75;;;;;;;11.99;68.64;102728.09;5447627;26;20010;-68
2024/04/10 10:35:53;;;;;;;12.63;2.78;;;;;;;11.93;67.66;102727.97;5494598;26;20002;-68
2024/04/10 10:38:42;;;;;;;7.43;2.20;;;;;;;11.94;67.57;102720.59;5436017;26;20002;-68
2024/04/10 10:41:31;;;;;;;6.68;2.42;;;;;;;11.97;68.32;102724.75;5459877;26;20403;-69
2024/04/10 10:44:22;;;;;;;9.20;2.58;;;;;;;11.91;66.96;102727.34;5518862;26;20390;-70
2024/04/10 10:47:11;;;;;;;13.23;3.30;;;;;;;11.86;67.22;102729.09;5471407;26;20379;-68
2024/04/10 10:50:03;;;;;;;13.23;3.00;;;;;;;11.83;68.82;102724.06;5461093;25;20074;-68
2024/04/10 10:52:52;;;;;;;11.63;2.67;;;;;;;11.83;69.99;102719.44;5521641;26;20341;-67
2024/04/10 10:55:51;;;;;;;12.23;2.83;;;;;;;11.83;69.73;102752.19;5485527;26;20002;-67
2024/04/10 10:58:39;;;;;;;9.80;2.50;;;;;;;11.82;68.53;102745.09;5467253;26;20398;-70
2024/04/10 11:01:27;;;;;;;10.60;3.03;;;;;;;11.82;68.56;102747.81;5460606;26;19997;-67
2024/04/10 11:04:16;;;;;;;6.55;2.33;;;;;;;11.81;68.00;102748.88;5531143;26;20005;-68
2024/04/10 11:07:08;;;;;;;10.77;2.90;;;;;;;11.84;68.92;102739.41;5481155;26;20016;-68
2024/04/10 11:10:06;;;;;;;9.57;2.78;;;;;;;11.96;67.66;102744.97;5420102;26;20002;-69
2024/04/10 11:13:07;;;;;;;9.88;2.83;;;;;;;11.99;66.96;102756.25;5477670;26;20002;-72
2024/04/10 11:15:58;;;;;;;12.45;2.75;;;;;;;11.96;65.82;102742.22;5459068;26;20072;-69
2024/04/10 11:18:46;;;;;;;9.95;2.70;;;;;;;11.99;66.54;102747.22;5507200;26;20017;-67
2024/04/10 11:21:35;;;;;;;10.27;2.80;;;;;;;12.00;66.86;102746.16;5508892;26;19997;-68
2024/04/10 11:24:27;;;;;;;8.20;2.63;;;;;;;12.04;66.03;102731.78;5442025;26;20473;-69
2024/04/10 11:27:16;;;;;;;10.35;3.10;;;;;;;12.13;67.01;102744.09;5506616;25;20001;-68
2024/04/10 11:30:05;;;;;;;18.67;3.13;;;;;;;12.26;66.59;102734.03;5517037;26;19994;-69
2024/04/10 11:32:56;;;;;;;17.33;2.97;;;;;;;12.26;66.31;102734.84;5526268;26;20371;-68
2024/04/10 11:35:44;;;;;;;10.65;2.90;;;;;;;12.31;65.10;102751.41;5498218;25;20360;-69
2024/04/10 11:38:37;;;;;;;7.90;2.45;;;;;;;12.34;63.53;102737.28;5489304;26;20327;-68
2024/04/10 11:41:26;;;;;;;10.63;2.92;;;;;;;12.37;64.36;102730.50;5486733;26;20009;-68
2024/04/10 11:44:17;;;;;;;10.40;2.63;;;;;;;12.41;63.91;102744.53;5462640;26;19998;-68
2024/04/10 11:47:05;;;;;;;7.88;2.47;;;;;;;12.49;62.64;102755.97;5473098;26;19998;-69
2024/04/10 11:49:53;;;;;;;8.45;2.38;;;;;;;12.55;61.39;102756.94;5500060;26;20010;-70
2024/04/10 11:52:43;;;;;;;8.70;2.35;;;;;;;12.58;58.54;102743.66;5475781;26;20031;-70
2024/04/10 11:55:32;;;;;;;9.23;2.50;;;;;;;12.67;59.67;102752.31;5498364;26;20005;-69
2024/04/10 11:58:20;;;;;;;8.43;2.58;;;;;;;12.73;59.73;102745.94;5474094;25;20065;-70
2024/04/10 12:01:10;;;;;;;9.50;3.05;;;;;;;12.86;63.81;102757.72;5467839;26;20001;-69
2024/04/10 12:03:58;;;;;;;10.30;3.38;;;;;;;12.96;69.40;102744.28;5444773;26;19994;-68
2024/04/10 12:06:47;;;;;;;14.25;4.88;;;;;;;13.24;85.66;102749.06;5434685;26;20430;-68
2024/04/10 12:09:37;;;;;;;17.42;7.35;;;;;;;13.40;99.78;102733.84;5462055;26;20102;-68
2024/04/10 12:12:25;;;;;;;15.65;5.10;;;;;;;13.72;95.58;102745.22;5526342;25;20007;-69
2024/04/10 12:15:13;;;;;;;15.55;5.38;;;;;;;14.04;100.00;102745.56;5561406;25;20447;-69
2024/04/10 12:18:02;;;;;;;10.07;3.90;;;;;;;13.95;100.00;102749.81;5503651;26;20470;-69
2024/04/10 12:20:51;;;;;;;8.73;2.72;;;;;;;13.97;74.77;102744.88;5466136;26;20020;-69
2024/04/10 12:23:39;;;;;;;9.82;3.03;;;;;;;13.71;67.41;102748.19;5464298;25;20421;-68
2024/04/10 12:26:30;;;;;;;6.38;2.40;;;;;;;13.44;57.79;102745.97;5550513;25;20005;-67
2024/04/10 12:29:18;;;;;;;10.70;2.85;;;;;;;13.33;58.21;102755.88;5485761;25;20000;-69
2024/04/10 12:32:06;;;;;;;8.30;2.90;;;;;;;13.41;70.16;102746.44;5495801;26;19997;-69
2024/04/10 12:38:02;;;;;;;9.00;2.95;;;;;;;13.57;70.79;102764.91;5498411;26;20012;-69
2024/04/10 12:38:07;;;;;;;8.18;2.47;;;;;;;13.41;57.97;102757.41;5529504;25;19997;-69
2024/04/10 12:41:03;;;;;;;8.63;3.25;;;;;;;13.58;68.49;102765.72;5517369;26;20001;-69
2024/04/10 12:48:12;;;;;;;10.07;2.75;;;;;;;13.46;56.45;102753.94;5536165;23;20014;-69
2024/04/10 12:51:03;;;;;;;6.43;2.53;;;;;;;13.44;61.43;102754.19;4930023;29;20028;-69
2024/04/10 12:53:51;;;;;;;6.32;2.40;;;;;;;13.64;82.17;102749.16;4950946;29;20010;-68
2024/04/10 12:56:39;;;;;;;6.35;2.50;;;;;;;13.88;77.57;102757.31;4972457;28;20025;-69
2024/04/10 12:59:28;;;;;;;7.63;2.70;;;;;;;14.41;91.30;102744.34;4929029;29;20045;-68
2024/04/10 13:02:16;;;;;;;10.50;2.50;;;;;;;14.51;69.80;102755.50;4969646;28;20479;-70